Terminal Aerodrome Forecast
Issued by NWS Wakefield, VA

Home | Current Version | Previous Version | Text Only | Print | Product List | Glossary On
Versions: 1 2 3 4 5 6 7 8 9 10 11 12 13 14 15 16 17 18 19 20
000
FTUS41 KAKQ 272343
TAFRIC
TAF
KRIC 272343Z 2800/2824 02006KT P6SM OVC050
     FM280600 34010KT P6SM BKN025 OVC040
     FM281400 33012G19KT P6SM BKN040=

USA.gov is the U.S. government's official web portal to all federal, state and local government web resources and services.